Time;durP1;ratioP1;P1;durP2;ratioP2;P2;SDS_P1;SDS_P2;PMS_P1;PMS_P2;Temp;Humidity;BMP_temperature;BMP_pressure;BME280_temperature;BME280_humidity;BME280_pressure;Samples;Min_cycle;Max_cycle;Signal;HPM_P1;HPM_P2
2022/01/04 00:00:09;;;;;;;;;225.75;197.50;9.40;62.70;;;;;;4957901;28;8788;-64
2022/01/04 00:02:35;;;;;;;;;223.00;193.25;9.60;62.20;;;;;;4942021;28;8818;-64
2022/01/04 00:05:01;;;;;;;;;229.25;207.75;9.40;62.20;;;;;;4957775;28;9427;-64
2022/01/04 00:07:27;;;;;;;;;230.00;199.25;9.30;62.70;;;;;;4957458;28;8793;-63
2022/01/04 00:09:53;;;;;;;;;232.75;209.00;9.30;62.70;;;;;;4957753;28;8832;-63
2022/01/04 00:15:05;;;;;;;;;232.00;210.25;9.20;62.90;;;;;;4957765;28;8871;-64
2022/01/04 00:17:31;;;;;;;;;254.75;230.00;9.20;62.90;;;;;;4958191;28;8780;-64
2022/01/04 00:19:57;;;;;;;;;230.50;206.75;9.20;63.10;;;;;;4957913;28;8812;-64
2022/01/04 00:22:23;;;;;;;;;279.25;258.25;9.20;62.90;;;;;;4957518;28;8987;-63
2022/01/04 00:24:49;;;;;;;;;271.50;246.75;9.20;62.90;;;;;;4958171;28;8779;-63
2022/01/04 00:27:14;;;;;;;;;259.00;236.00;8.90;63.90;;;;;;4957314;28;8792;-63
2022/01/04 00:29:40;;;;;;;;;255.00;238.75;8.70;64.70;;;;;;4956994;28;8813;-63
2022/01/04 00:32:07;;;;;;;;;260.50;239.25;8.80;64.90;;;;;;4958143;28;8827;-63
2022/01/04 00:34:33;;;;;;;;;259.25;236.25;9.00;64.00;;;;;;4957739;28;9640;-65
2022/01/04 00:36:59;;;;;;;;;255.00;227.00;9.20;63.60;;;;;;4957643;28;8842;-64
2022/01/04 00:39:24;;;;;;;;;276.25;242.50;9.00;64.60;;;;;;4957573;28;8817;-62
2022/01/04 00:41:50;;;;;;;;;212.00;192.25;9.30;62.80;;;;;;4957489;28;8849;-63
2022/01/04 00:44:16;;;;;;;;;198.00;179.00;9.20;63.00;;;;;;4957468;28;9443;-63
2022/01/04 00:46:42;;;;;;;;;197.75;180.50;9.30;62.20;;;;;;4957494;28;8872;-63
2022/01/04 00:49:10;;;;;;;;;208.25;188.00;9.40;62.20;;;;;;4957454;28;8808;-62
2022/01/04 00:51:41;;;;;;;;;185.00;173.75;9.30;62.40;;;;;;4957717;28;8780;-62
2022/01/04 00:54:08;;;;;;;;;187.00;166.50;9.20;62.70;;;;;;4957616;28;9605;-63
2022/01/04 00:56:34;;;;;;;;;172.00;161.00;9.40;62.20;;;;;;4956565;28;8773;-63
2022/01/04 00:58:59;;;;;;;;;160.75;155.00;9.10;62.80;;;;;;4957632;28;8835;-62
2022/01/04 01:01:26;;;;;;;;;150.25;144.00;9.10;62.80;;;;;;4957241;28;8764;-63
2022/01/04 01:03:52;;;;;;;;;146.00;138.25;9.00;62.90;;;;;;4957516;28;8757;-63
2022/01/04 01:06:18;;;;;;;;;207.75;185.75;8.50;64.60;;;;;;4957177;28;8772;-64
2022/01/04 01:08:45;;;;;;;;;218.25;200.50;8.80;64.60;;;;;;4957067;28;8847;-63
2022/01/04 01:11:11;;;;;;;;;219.25;196.50;9.00;63.60;;;;;;4957098;28;8765;-62
2022/01/04 01:13:37;;;;;;;;;264.75;241.25;8.80;63.90;;;;;;4957041;28;8811;-63
2022/01/04 01:16:04;;;;;;;;;270.50;248.25;8.70;64.80;;;;;;4957060;28;8847;-63
2022/01/04 01:18:30;;;;;;;;;253.00;236.00;8.90;63.70;;;;;;4956750;28;8820;-62
2022/01/04 01:20:56;;;;;;;;;254.75;230.75;8.80;63.80;;;;;;4956415;28;8787;-62
2022/01/04 01:23:22;;;;;;;;;238.75;213.25;9.10;63.00;;;;;;4956818;28;8885;-62
2022/01/04 01:25:49;;;;;;;;;229.50;204.75;8.90;62.70;;;;;;4956752;28;8803;-62
2022/01/04 01:28:15;;;;;;;;;234.75;211.25;8.80;63.10;;;;;;4955898;28;8854;-62
2022/01/04 01:30:43;;;;;;;;;265.50;233.75;8.70;63.40;;;;;;4955592;28;8799;-62
2022/01/04 01:33:10;;;;;;;;;281.25;256.50;8.20;66.50;;;;;;4956029;28;8898;-62
2022/01/04 01:35:39;;;;;;;;;273.00;254.50;7.90;67.70;;;;;;4955701;28;8792;-62
2022/01/04 01:38:08;;;;;;;;;284.75;254.25;8.00;67.30;;;;;;4955977;28;8803;-62
2022/01/04 01:40:35;;;;;;;;;299.75;271.50;8.30;65.90;;;;;;4955611;28;8777;-63
2022/01/04 01:43:01;;;;;;;;;284.75;261.00;8.30;65.50;;;;;;4954358;28;8806;-62
2022/01/04 01:45:27;;;;;;;;;303.50;267.25;8.40;65.20;;;;;;4955422;28;8851;-62
2022/01/04 01:47:53;;;;;;;;;298.50;273.00;8.20;66.00;;;;;;4955276;28;8862;-62
2022/01/04 01:50:19;;;;;;;;;297.25;269.00;8.40;65.30;;;;;;4954599;28;8822;-62
2022/01/04 01:52:48;;;;;;;;;289.50;267.25;8.50;64.30;;;;;;4955384;28;8775;-62
2022/01/04 01:55:19;;;;;;;;;296.50;268.50;8.40;65.30;;;;;;4953521;28;8794;-62
2022/01/04 01:57:46;;;;;;;;;329.75;298.00;8.50;64.90;;;;;;4955203;28;8819;-63
2022/01/04 02:00:14;;;;;;;;;306.50;279.50;8.70;64.50;;;;;;4954776;28;8943;-61
2022/01/04 02:02:40;;;;;;;;;331.50;299.00;8.70;64.20;;;;;;4954702;28;8866;-62
2022/01/04 02:05:07;;;;;;;;;329.50;286.00;8.60;64.60;;;;;;4955064;28;8912;-62
2022/01/04 02:07:34;;;;;;;;;326.50;283.50;8.60;64.20;;;;;;4955949;28;8791;-62
2022/01/04 02:10:07;;;;;;;;;322.25;292.25;8.60;64.20;;;;;;4955097;28;8827;-62
2022/01/04 02:12:34;;;;;;;;;325.75;284.25;8.60;63.90;;;;;;4955676;28;8875;-63
2022/01/04 02:15:00;;;;;;;;;325.75;295.25;8.60;64.30;;;;;;4956357;28;8793;-62
2022/01/04 02:17:26;;;;;;;;;286.25;263.50;8.70;64.20;;;;;;4956252;29;8793;-63
2022/01/04 02:20:02;;;;;;;;;300.50;269.00;8.10;65.80;;;;;;4956068;29;8835;-65
2022/01/04 02:22:28;;;;;;;;;318.00;280.50;7.90;67.20;;;;;;4937318;29;8797;-63
2022/01/04 02:24:54;;;;;;;;;327.25;292.50;8.10;66.80;;;;;;4944035;29;8780;-63
2022/01/04 02:27:21;;;;;;;;;320.25;285.25;8.10;65.70;;;;;;4956019;29;8919;-63
2022/01/04 02:29:47;;;;;;;;;325.75;288.75;7.50;69.10;;;;;;4955946;29;8812;-63
2022/01/04 02:32:14;;;;;;;;;313.75;288.25;7.00;72.90;;;;;;4956299;29;8768;-62
2022/01/04 02:34:45;;;;;;;;;293.25;264.75;6.90;73.70;;;;;;4956263;29;9465;-62
2022/01/04 02:37:11;;;;;;;;;315.75;284.50;7.40;71.60;;;;;;4956119;29;8744;-62
2022/01/04 02:39:38;;;;;;;;;330.50;289.50;7.80;68.70;;;;;;4955964;29;8811;-62
2022/01/04 02:42:05;;;;;;;;;352.00;322.75;8.10;67.40;;;;;;4956187;29;8966;-62
2022/01/04 02:44:32;;;;;;;;;330.75;299.00;8.10;66.80;;;;;;4956249;28;8793;-62
2022/01/04 02:46:58;;;;;;;;;354.50;321.00;7.60;68.60;;;;;;4956095;28;8792;-62
2022/01/04 02:49:24;;;;;;;;;385.00;350.50;6.80;73.50;;;;;;4955779;29;8986;-62
2022/01/04 02:51:51;;;;;;;;;332.50;293.75;6.50;77.00;;;;;;4955857;29;8764;-64
2022/01/04 02:54:17;;;;;;;;;305.50;272.50;6.30;78.50;;;;;;4955928;29;8795;-62
2022/01/04 02:56:43;;;;;;;;;306.00;272.00;6.80;74.70;;;;;;4955799;29;8765;-63
2022/01/04 02:59:08;;;;;;;;;281.25;258.50;7.00;73.00;;;;;;4956148;29;8800;-62
2022/01/04 03:01:34;;;;;;;;;278.25;246.50;7.10;71.90;;;;;;4955990;29;8830;-62
2022/01/04 03:04:00;;;;;;;;;268.75;239.75;7.30;70.20;;;;;;4955901;29;8765;-62
2022/01/04 03:06:26;;;;;;;;;317.50;276.75;7.00;71.20;;;;;;4955746;29;9438;-61
2022/01/04 03:08:52;;;;;;;;;301.75;269.75;7.00;71.80;;;;;;4955623;29;8925;-62
2022/01/04 03:11:18;;;;;;;;;299.00;268.75;6.70;73.60;;;;;;4955689;29;8812;-62
2022/01/04 03:13:44;;;;;;;;;329.25;292.25;6.50;75.60;;;;;;4955717;29;8757;-63
2022/01/04 03:16:09;;;;;;;;;286.25;260.00;6.40;77.00;;;;;;4955648;29;8822;-62
2022/01/04 03:18:43;;;;;;;;;297.00;259.75;6.40;76.90;;;;;;4956510;28;8936;-61
2022/01/04 03:21:10;;;;;;;;;265.50;251.50;6.40;76.50;;;;;;4959078;28;8820;-63
2022/01/04 03:23:36;;;;;;;;;281.00;252.75;6.40;76.80;;;;;;4959145;28;8907;-62
2022/01/04 03:26:01;;;;;;;;;296.50;264.00;6.10;80.60;;;;;;4958415;28;9485;-62
2022/01/04 03:28:27;;;;;;;;;283.00;258.75;6.00;81.70;;;;;;4958853;28;9458;-62
2022/01/04 03:30:53;;;;;;;;;296.00;267.00;6.40;78.10;;;;;;4959299;28;8780;-62
2022/01/04 03:33:19;;;;;;;;;305.50;271.50;7.00;73.80;;;;;;4973945;28;8887;-63
2022/01/04 03:35:45;;;;;;;;;304.75;277.00;7.50;70.50;;;;;;4959107;28;8800;-62
2022/01/04 03:38:10;;;;;;;;;299.25;271.50;7.80;68.80;;;;;;4958653;28;8765;-62
2022/01/04 03:40:36;;;;;;;;;287.25;258.75;7.80;68.10;;;;;;4958979;28;8788;-62
2022/01/04 03:43:02;;;;;;;;;270.00;241.00;8.10;66.60;;;;;;4958698;28;8780;-62
2022/01/04 03:45:28;;;;;;;;;284.75;259.50;7.90;67.20;;;;;;4958641;28;8776;-62
2022/01/04 03:47:53;;;;;;;;;282.00;250.75;7.70;67.70;;;;;;4958617;28;8784;-62
2022/01/04 03:50:19;;;;;;;;;262.00;243.50;7.10;71.20;;;;;;4958830;28;8791;-61
2022/01/04 03:52:45;;;;;;;;;261.25;246.75;7.00;72.50;;;;;;4958822;28;8768;-61
2022/01/04 03:55:11;;;;;;;;;307.75;261.50;6.80;75.50;;;;;;4958775;28;8799;-61
2022/01/04 03:57:37;;;;;;;;;289.00;262.75;6.60;76.60;;;;;;4958430;28;8918;-61
2022/01/04 04:00:08;;;;;;;;;269.75;245.00;7.00;72.90;;;;;;4958486;28;8807;-61
2022/01/04 04:02:33;;;;;;;;;260.25;239.50;7.10;72.20;;;;;;4958841;28;8770;-62
2022/01/04 04:04:59;;;;;;;;;277.75;256.25;6.90;73.00;;;;;;4958505;28;8777;-61
2022/01/04 04:07:25;;;;;;;;;265.75;245.00;6.70;74.30;;;;;;4958544;28;8779;-61
2022/01/04 04:09:51;;;;;;;;;263.25;241.00;6.70;74.50;;;;;;4958499;28;8772;-61
2022/01/04 04:12:16;;;;;;;;;258.25;235.00;6.50;76.30;;;;;;4958173;28;8789;-61
2022/01/04 04:14:42;;;;;;;;;252.25;233.25;6.30;78.20;;;;;;4958364;28;8800;-61
2022/01/04 04:17:08;;;;;;;;;252.75;230.75;6.40;77.20;;;;;;4958045;28;9383;-62
2022/01/04 04:19:34;;;;;;;;;234.75;210.50;6.60;75.40;;;;;;4957855;28;8836;-62
2022/01/04 04:22:00;;;;;;;;;214.25;200.25;6.50;75.60;;;;;;4957965;28;8815;-62
2022/01/04 04:24:26;;;;;;;;;204.75;192.25;6.40;76.10;;;;;;4957962;28;8927;-62
2022/01/04 04:26:51;;;;;;;;;235.00;207.50;6.50;75.80;;;;;;4957905;28;8787;-62
2022/01/04 04:29:17;;;;;;;;;245.00;218.50;6.60;74.70;;;;;;4957766;28;8911;-62
2022/01/04 04:31:43;;;;;;;;;219.25;191.00;7.10;72.10;;;;;;4957675;28;8907;-61
2022/01/04 04:34:08;;;;;;;;;231.00;196.00;7.60;68.90;;;;;;4957889;28;8807;-62
2022/01/04 04:36:34;;;;;;;;;193.25;171.25;7.90;67.10;;;;;;4957956;28;8817;-62
2022/01/04 04:39:00;;;;;;;;;163.50;149.00;8.20;65.50;;;;;;4957671;28;9427;-62
2022/01/04 04:41:26;;;;;;;;;129.50;111.25;8.10;65.80;;;;;;4940826;28;8811;-63
2022/01/04 04:43:54;;;;;;;;;121.50;115.50;7.70;66.70;;;;;;4958005;28;8765;-62
2022/01/04 04:46:21;;;;;;;;;95.75;88.50;7.70;67.40;;;;;;4972214;28;8795;-62
2022/01/04 04:48:47;;;;;;;;;128.50;113.25;8.20;65.70;;;;;;4957707;28;8756;-62
2022/01/04 04:51:13;;;;;;;;;146.25;130.50;8.40;64.30;;;;;;4957473;28;8776;-62
2022/01/04 04:53:39;;;;;;;;;164.75;143.50;8.30;64.20;;;;;;4957468;28;8863;-62
2022/01/04 04:56:05;;;;;;;;;137.75;130.50;8.10;64.60;;;;;;4957287;28;8859;-62
2022/01/04 04:58:31;;;;;;;;;172.75;158.00;7.80;65.90;;;;;;4957644;28;8866;-62
2022/01/04 05:00:57;;;;;;;;;253.50;236.00;7.80;66.30;;;;;;4957552;28;8891;-61
2022/01/04 05:03:22;;;;;;;;;270.75;239.25;7.00;70.90;;;;;;4957294;28;8784;-62
2022/01/04 05:05:48;;;;;;;;;254.50;230.00;6.80;72.40;;;;;;4957245;28;8779;-61
2022/01/04 05:08:14;;;;;;;;;260.25;236.75;6.50;75.10;;;;;;4957121;28;8900;-61
2022/01/04 05:10:42;;;;;;;;;258.50;229.50;6.60;75.30;;;;;;4957391;28;8777;-61
2022/01/04 05:13:07;;;;;;;;;243.75;215.50;6.90;73.70;;;;;;4957128;28;8783;-62
2022/01/04 05:15:34;;;;;;;;;242.75;222.25;6.80;73.30;;;;;;4957306;28;8756;-62
2022/01/04 05:17:59;;;;;;;;;248.75;232.00;7.10;71.40;;;;;;4957030;28;8807;-62
2022/01/04 05:20:25;;;;;;;;;241.25;217.75;7.10;71.70;;;;;;4957017;28;9474;-62
2022/01/04 05:22:51;;;;;;;;;198.75;179.50;7.20;70.10;;;;;;4957252;28;8780;-62
2022/01/04 05:25:17;;;;;;;;;193.00;177.50;7.20;70.00;;;;;;4955919;28;8812;-62
2022/01/04 05:27:42;;;;;;;;;192.00;168.75;7.50;68.30;;;;;;4956753;28;8800;-62
2022/01/04 05:30:09;;;;;;;;;208.75;192.25;7.10;70.10;;;;;;4955962;28;8788;-62
2022/01/04 05:32:35;;;;;;;;;191.50;173.50;7.10;69.90;;;;;;4956845;28;8793;-62
2022/01/04 05:35:00;;;;;;;;;200.50;184.00;7.10;69.30;;;;;;4957012;28;8778;-63
2022/01/04 05:37:26;;;;;;;;;197.75;185.75;7.30;68.00;;;;;;4955796;28;8861;-63
2022/01/04 05:39:52;;;;;;;;;185.00;165.50;7.40;67.60;;;;;;4955801;28;8812;-62
2022/01/04 05:42:17;;;;;;;;;183.75;167.25;7.50;66.60;;;;;;4956133;28;8784;-61
2022/01/04 05:44:43;;;;;;;;;152.00;140.50;7.40;66.70;;;;;;4956530;28;8808;-62
2022/01/04 05:47:09;;;;;;;;;157.75;150.00;7.60;65.50;;;;;;4955702;28;8799;-62
2022/01/04 05:49:35;;;;;;;;;174.75;161.75;7.60;65.60;;;;;;4956395;28;8806;-61
2022/01/04 05:52:04;;;;;;;;;161.50;146.75;7.60;65.10;;;;;;4956405;28;8882;-62
2022/01/04 05:54:30;;;;;;;;;195.75;173.25;7.50;65.20;;;;;;4956508;28;8771;-63
2022/01/04 05:56:55;;;;;;;;;202.75;184.00;7.20;67.40;;;;;;4956015;28;8803;-63
2022/01/04 05:59:21;;;;;;;;;205.75;177.00;7.20;67.10;;;;;;4956612;28;8930;-64
2022/01/04 06:01:47;;;;;;;;;195.50;175.50;7.20;67.20;;;;;;4956258;28;8813;-63
2022/01/04 06:04:13;;;;;;;;;181.75;168.00;7.50;66.20;;;;;;4956101;28;8795;-64
2022/01/04 06:06:41;;;;;;;;;186.00;165.75;7.20;67.30;;;;;;4956267;28;8811;-64
2022/01/04 06:09:16;;;;;;;;;189.00;170.75;7.20;67.30;;;;;;4956449;28;8894;-63
2022/01/04 06:16:51;;;;;;;;;172.75;155.50;7.50;66.00;;;;;;4956286;29;8767;-62
2022/01/04 06:19:17;;;;;;;;;185.25;173.00;7.50;65.70;;;;;;4956090;29;8933;-64
2022/01/04 06:21:43;;;;;;;;;192.75;179.50;7.70;65.00;;;;;;4956356;29;8851;-63
2022/01/04 06:24:09;;;;;;;;;181.25;161.00;7.60;65.10;;;;;;4956314;28;8803;-63
2022/01/04 06:26:34;;;;;;;;;184.50;167.75;7.70;65.00;;;;;;4955713;28;8895;-63
2022/01/04 06:29:02;;;;;;;;;183.50;166.25;7.50;65.60;;;;;;4956350;29;8812;-63
2022/01/04 06:31:28;;;;;;;;;170.50;158.00;7.20;67.10;;;;;;4954299;29;8784;-62
2022/01/04 06:33:55;;;;;;;;;193.00;174.75;7.40;66.00;;;;;;4956062;29;9500;-62
2022/01/04 06:36:21;;;;;;;;;171.00;165.25;7.50;65.60;;;;;;4955906;29;8799;-63
2022/01/04 06:38:47;;;;;;;;;177.50;166.75;7.20;66.50;;;;;;4955771;29;8837;-63
2022/01/04 06:41:13;;;;;;;;;183.75;162.50;7.30;66.90;;;;;;4955877;29;8767;-63
2022/01/04 06:43:39;;;;;;;;;179.50;161.50;7.60;65.90;;;;;;4956067;29;8791;-63
2022/01/04 06:46:05;;;;;;;;;173.25;159.25;7.60;65.10;;;;;;4955829;28;8869;-62
2022/01/04 06:48:31;;;;;;;;;168.00;154.50;7.80;64.60;;;;;;4955968;29;8854;-63
2022/01/04 06:50:57;;;;;;;;;170.75;162.25;7.70;65.00;;;;;;4956070;29;8803;-62
2022/01/04 06:53:23;;;;;;;;;168.75;153.75;7.70;64.50;;;;;;4956525;28;8926;-63
2022/01/04 06:55:53;;;;;;;;;171.50;158.00;7.80;64.50;;;;;;4959586;28;8783;-62
2022/01/04 06:58:19;;;;;;;;;167.00;154.75;7.70;64.50;;;;;;4959515;28;8843;-62
2022/01/04 07:00:45;;;;;;;;;170.25;161.75;7.90;64.10;;;;;;4959432;28;8778;-62
2022/01/04 07:03:11;;;;;;;;;172.25;155.75;8.00;63.70;;;;;;4959141;28;8806;-62
2022/01/04 07:05:37;;;;;;;;;189.00;171.00;8.10;63.60;;;;;;4959617;28;8813;-62
2022/01/04 07:08:03;;;;;;;;;177.00;158.50;8.00;63.40;;;;;;4959319;28;9397;-62
2022/01/04 07:10:29;;;;;;;;;174.00;157.75;8.10;63.90;;;;;;4959780;28;8787;-62
2022/01/04 07:12:55;;;;;;;;;172.00;157.75;8.20;63.50;;;;;;4959147;28;8775;-62
2022/01/04 07:15:21;;;;;;;;;170.75;148.75;8.10;63.90;;;;;;4959264;28;8767;-63
2022/01/04 07:17:47;;;;;;;;;157.00;143.00;8.40;63.50;;;;;;4959034;28;8783;-64
2022/01/04 07:20:13;;;;;;;;;161.50;151.25;8.40;62.90;;;;;;4959048;28;8846;-62
2022/01/04 07:22:39;;;;;;;;;155.25;141.00;8.50;62.50;;;;;;4959136;28;8790;-62
2022/01/04 07:25:05;;;;;;;;;146.50;135.25;8.60;62.30;;;;;;4959321;28;8931;-62
2022/01/04 07:27:32;;;;;;;;;167.00;151.25;8.50;62.40;;;;;;4959223;28;8787;-62
2022/01/04 07:29:58;;;;;;;;;182.25;158.25;8.60;62.50;;;;;;4959111;28;8814;-63
2022/01/04 07:32:25;;;;;;;;;190.75;174.25;8.50;62.70;;;;;;4958466;28;8784;-62
2022/01/04 07:34:50;;;;;;;;;222.75;195.75;8.60;62.40;;;;;;4959164;28;8867;-62
2022/01/04 07:37:16;;;;;;;;;243.75;219.75;8.50;63.40;;;;;;4958683;28;8781;-62
2022/01/04 07:39:42;;;;;;;;;238.00;215.50;8.50;63.60;;;;;;4958584;28;8800;-62
2022/01/04 07:42:08;;;;;;;;;250.25;232.00;8.20;64.30;;;;;;4958730;28;9386;-62
2022/01/04 07:44:34;;;;;;;;;218.50;203.50;8.40;63.90;;;;;;4958724;28;8792;-62
2022/01/04 07:47:00;;;;;;;;;237.25;206.25;8.50;63.50;;;;;;4958663;28;8765;-63
2022/01/04 07:49:26;;;;;;;;;208.00;192.25;8.80;62.50;;;;;;4957943;28;8927;-63
2022/01/04 07:51:53;;;;;;;;;214.50;198.00;9.10;61.70;;;;;;4958434;28;8851;-62
2022/01/04 07:54:19;;;;;;;;;218.50;208.50;9.20;61.70;;;;;;4958236;28;8757;-63
2022/01/04 07:56:45;;;;;;;;;209.50;192.75;9.40;61.50;;;;;;4958602;28;8795;-62
2022/01/04 07:59:11;;;;;;;;;196.50;182.75;9.30;61.50;;;;;;4958536;28;8924;-63
2022/01/04 08:01:37;;;;;;;;;210.00;192.50;9.30;61.60;;;;;;4958070;28;8885;-62
2022/01/04 08:04:04;;;;;;;;;210.75;196.25;9.40;61.60;;;;;;4955253;28;8903;-61
2022/01/04 08:06:30;;;;;;;;;204.50;187.00;9.40;61.50;;;;;;4958030;28;8822;-60
2022/01/04 08:08:57;;;;;;;;;207.50;185.50;9.70;61.10;;;;;;4958157;28;8792;-60
2022/01/04 08:11:22;;;;;;;;;188.75;175.75;9.80;60.70;;;;;;4958085;28;8761;-61
2022/01/04 08:13:48;;;;;;;;;206.75;190.50;9.90;60.30;;;;;;4958098;28;8785;-60
2022/01/04 08:16:15;;;;;;;;;195.50;185.75;9.90;60.60;;;;;;4958415;28;8772;-60
2022/01/04 08:18:42;;;;;;;;;195.25;175.25;10.00;60.80;;;;;;4957351;28;8824;-61
2022/01/04 08:21:08;;;;;;;;;175.50;161.75;10.00;61.30;;;;;;4958052;28;8768;-61
2022/01/04 08:23:33;;;;;;;;;174.25;160.25;10.00;61.80;;;;;;4958198;28;8780;-61
2022/01/04 08:25:59;;;;;;;;;172.50;160.00;10.30;61.10;;;;;;4957471;28;9492;-61
2022/01/04 08:28:25;;;;;;;;;156.00;147.00;10.50;60.80;;;;;;4958049;28;8839;-61
2022/01/04 08:30:51;;;;;;;;;168.75;155.50;10.60;61.00;;;;;;4956234;28;8785;-60
2022/01/04 08:33:17;;;;;;;;;178.00;164.00;10.70;60.90;;;;;;4956256;28;8781;-60
2022/01/04 08:35:43;;;;;;;;;176.25;159.75;10.80;60.70;;;;;;4956534;28;8835;-60
2022/01/04 08:38:10;;;;;;;;;170.25;155.75;10.90;60.90;;;;;;4956830;28;8776;-61
2022/01/04 08:40:36;;;;;;;;;172.75;157.00;10.90;61.10;;;;;;4956108;28;8907;-60
2022/01/04 08:43:03;;;;;;;;;165.00;154.25;10.90;60.90;;;;;;4956289;28;8749;-60
2022/01/04 08:45:29;;;;;;;;;184.50;170.50;11.00;61.80;;;;;;4939069;28;9392;-64
2022/01/04 08:47:55;;;;;;;;;185.75;175.00;10.90;62.60;;;;;;4956326;28;8788;-64
2022/01/04 08:50:21;;;;;;;;;173.00;162.00;10.70;63.90;;;;;;4956271;28;8797;-64
2022/01/04 08:52:54;;;;;;;;;149.50;140.00;11.00;63.50;;;;;;4951203;28;8776;-64
2022/01/04 08:55:20;;;;;;;;;150.75;137.00;10.80;65.40;;;;;;4956243;28;8772;-65
2022/01/04 08:57:46;;;;;;;;;153.50;140.50;11.10;64.30;;;;;;4953784;28;8792;-65
2022/01/04 09:00:13;;;;;;;;;160.00;148.00;11.70;62.40;;;;;;4956030;28;8819;-65
2022/01/04 09:02:39;;;;;;;;;160.50;150.75;12.30;61.20;;;;;;4956043;28;8826;-68
2022/01/04 09:05:06;;;;;;;;;141.25;128.75;12.30;61.00;;;;;;4955975;28;8764;-65
2022/01/04 09:07:32;;;;;;;;;142.00;132.75;12.20;61.20;;;;;;4955854;28;8753;-65
2022/01/04 09:09:58;;;;;;;;;144.50;133.00;12.30;61.40;;;;;;4956294;28;8821;-64
2022/01/04 09:12:30;;;;;;;;;131.75;123.25;12.30;61.60;;;;;;4957329;28;8768;-69
2022/01/04 09:20:10;;;;;;;;;142.00;131.00;12.90;60.40;;;;;;4954701;28;8808;-64
2022/01/04 09:22:37;;;;;;;;;138.75;127.25;12.70;62.10;;;;;;4955682;28;8780;-64
2022/01/04 09:25:04;;;;;;;;;125.50;115.00;12.70;62.20;;;;;;4957251;28;9482;-65
2022/01/04 09:27:29;;;;;;;;;138.75;128.75;13.30;60.20;;;;;;4956679;28;8795;-67
2022/01/04 09:29:56;;;;;;;;;136.25;124.25;13.50;58.80;;;;;;4956692;28;8768;-64
2022/01/04 09:32:22;;;;;;;;;120.75;113.00;13.80;57.70;;;;;;4956634;28;8769;-65
2022/01/04 09:34:49;;;;;;;;;118.00;109.00;13.70;57.70;;;;;;4956567;28;8765;-65
2022/01/04 09:37:15;;;;;;;;;98.25;92.25;13.90;57.30;;;;;;4956699;28;8783;-66
2022/01/04 09:39:41;;;;;;;;;99.00;93.50;14.10;55.90;;;;;;4956796;28;8784;-66
2022/01/04 09:42:08;;;;;;;;;89.75;84.75;14.40;55.60;;;;;;4956734;28;8879;-65
2022/01/04 09:44:35;;;;;;;;;84.75;75.00;14.70;55.60;;;;;;4956493;28;8927;-64
2022/01/04 09:47:03;;;;;;;;;82.75;72.00;14.50;55.40;;;;;;4956499;28;8851;-66
2022/01/04 09:49:29;;;;;;;;;78.75;68.00;14.40;56.00;;;;;;4956760;28;8787;-65
2022/01/04 09:51:56;;;;;;;;;76.50;64.25;14.00;57.30;;;;;;4956429;28;8772;-66
2022/01/04 09:54:24;;;;;;;;;84.25;76.00;13.60;58.80;;;;;;4956689;28;8768;-67
2022/01/04 09:56:51;;;;;;;;;77.75;66.75;13.60;59.10;;;;;;4956397;28;8756;-67
2022/01/04 09:59:18;;;;;;;;;90.25;83.75;13.80;58.70;;;;;;4956676;28;8868;-65
2022/01/04 10:01:49;;;;;;;;;77.75;67.75;13.80;58.70;;;;;;4956189;28;8771;-67
2022/01/04 10:04:16;;;;;;;;;81.50;69.25;14.00;58.00;;;;;;4956530;28;8765;-64
2022/01/04 10:07:02;;;;;;;;;81.00;67.25;14.30;57.00;;;;;;4956501;28;8775;-70
2022/01/04 10:09:42;;;;;;;;;78.00;69.50;14.50;57.90;;;;;;4956384;28;8761;-66
2022/01/04 10:12:10;;;;;;;;;68.00;56.00;14.50;58.20;;;;;;4953016;28;8779;-65
2022/01/04 10:14:40;;;;;;;;;70.00;56.75;14.80;56.60;;;;;;4952146;28;8761;-65
2022/01/04 10:17:20;;;;;;;;;68.00;54.00;15.70;54.80;;;;;;4956259;29;8776;-64
2022/01/04 10:19:48;;;;;;;;;56.50;46.50;17.50;51.90;;;;;;4955621;29;8840;-64
2022/01/04 10:22:17;;;;;;;;;60.75;50.75;20.20;45.70;;;;;;4956025;29;8780;-65
2022/01/04 10:24:46;;;;;;;;;64.50;52.00;22.10;41.80;;;;;;4955186;28;8776;-65
2022/01/04 10:27:31;;;;;;;;;64.25;51.00;24.10;37.30;;;;;;4952258;28;9057;-65
2022/01/04 10:30:12;;;;;;;;;63.25;52.00;26.20;33.90;;;;;;4959547;28;8827;-64
2022/01/04 10:33:11;;;;;;;;;59.67;48.67;26.40;33.00;;;;;;4940712;29;8825;-64
2022/01/04 10:35:37;;;;;;;;;53.67;45.33;27.40;31.20;;;;;;4959304;28;8792;-64
2022/01/04 10:38:23;;;;;;;;;62.67;52.33;28.00;30.00;;;;;;4958610;28;8899;-64
2022/01/04 10:40:56;;;;;;;;;61.33;51.33;27.30;30.80;;;;;;4959132;28;9481;-64
2022/01/04 10:43:25;;;;;;;;;56.33;47.33;26.30;33.00;;;;;;4940475;29;8785;-66
2022/01/04 10:45:51;;;;;;;;;54.33;46.33;27.50;30.80;;;;;;4940515;29;8775;-64
2022/01/04 10:48:22;;;;;;;;;47.67;41.00;28.20;29.90;;;;;;4940389;29;8787;-67
2022/01/04 10:50:53;;;;;;;;;37.00;32.33;28.70;29.40;;;;;;4955218;29;8794;-65
2022/01/04 10:53:20;;;;;;;;;53.00;45.00;29.70;28.80;;;;;;4940272;29;8786;-66
2022/01/04 10:55:47;;;;;;;;;29.33;28.33;30.80;27.80;;;;;;4940143;29;8833;-64
2022/01/04 10:58:28;;;;;;;;;43.00;37.00;29.80;27.50;;;;;;4944138;28;8804;-65
2022/01/04 11:01:00;;;;;;;;;52.33;44.33;29.10;27.90;;;;;;4944037;28;8906;-66
2022/01/04 11:03:29;;;;;;;;;36.67;33.00;28.30;28.90;;;;;;4959229;28;8831;-66
2022/01/04 11:06:10;;;;;;;;;43.67;37.33;27.40;29.60;;;;;;4959056;28;8781;-68
2022/01/04 11:08:37;;;;;;;;;49.33;42.00;28.30;29.40;;;;;;4959157;28;8804;-66
2022/01/04 11:11:04;;;;;;;;;44.67;38.33;28.50;28.30;;;;;;4954342;28;8800;-64
2022/01/04 11:13:31;;;;;;;;;53.00;45.00;26.40;29.70;;;;;;4958251;28;8831;-64
2022/01/04 11:15:57;;;;;;;;;52.00;44.00;24.70;32.10;;;;;;4958561;28;8793;-64
2022/01/04 11:18:24;;;;;;;;;56.00;46.33;23.10;34.40;;;;;;4957936;28;8776;-65
2022/01/04 11:20:51;;;;;;;;;59.00;48.33;22.60;35.40;;;;;;4958830;28;8788;-68
2022/01/04 11:23:22;;;;;;;;;55.67;46.33;24.20;33.70;;;;;;4959221;28;8812;-66
2022/01/04 11:25:49;;;;;;;;;56.33;46.67;25.40;31.50;;;;;;4958809;28;8788;-65
2022/01/04 11:28:15;;;;;;;;;52.33;44.33;25.10;31.20;;;;;;4959040;28;8800;-66
2022/01/04 11:30:58;;;;;;;;;59.33;49.00;23.70;31.70;;;;;;4958856;28;8803;-64
2022/01/04 11:33:30;;;;;;;;;56.00;47.67;21.50;35.50;;;;;;4958597;28;8854;-63
2022/01/04 11:35:57;;;;;;;;;62.75;50.75;20.60;37.40;;;;;;4958016;28;8845;-71
2022/01/04 11:38:33;;;;;;;;;58.50;49.50;19.50;40.00;;;;;;4957326;28;8811;-61
2022/01/04 11:40:59;;;;;;;;;67.25;54.00;19.10;41.20;;;;;;4957835;28;9677;-65
2022/01/04 11:43:35;;;;;;;;;62.75;52.25;19.30;40.70;;;;;;4957974;28;8805;-63
2022/01/04 11:46:02;;;;;;;;;65.00;50.50;18.90;42.00;;;;;;4957657;28;8791;-62
2022/01/04 11:48:40;;;;;;;;;62.75;51.00;18.00;44.40;;;;;;4958587;28;8808;-62
2022/01/04 12:29:00;;;;;;;;;58.25;49.00;17.70;45.60;;;;;;5067234;28;14237;-65
2022/01/04 12:31:46;;;;;;;;;61.75;50.00;18.40;45.30;;;;;;5066113;28;8767;-65
2022/01/04 12:34:38;;;;;;;;;63.00;50.75;18.40;44.70;;;;;;5070075;28;8785;-68
2022/01/04 12:37:07;;;;;;;;;67.25;50.75;18.30;45.00;;;;;;5066257;28;8900;-69
2022/01/04 12:39:36;;;;;;;;;65.00;52.25;18.10;45.40;;;;;;5064812;28;8776;-69
2022/01/04 12:42:02;;;;;;;;;66.25;54.00;18.50;44.80;;;;;;5067309;28;8771;-66
2022/01/04 12:44:29;;;;;;;;;66.25;54.75;19.00;44.60;;;;;;5067002;28;8755;-64
2022/01/04 12:46:56;;;;;;;;;67.50;55.00;19.30;42.70;;;;;;5067593;28;8755;-67
2022/01/04 12:49:24;;;;;;;;;65.00;54.25;19.60;41.90;;;;;;5070920;28;8794;-65
2022/01/04 12:51:53;;;;;;;;;63.50;52.00;19.90;41.80;;;;;;5066436;28;8761;-65
2022/01/04 12:54:31;;;;;;;;;69.25;56.50;20.00;41.30;;;;;;5065102;28;8781;-65
2022/01/04 12:56:59;;;;;;;;;73.50;61.25;20.10;41.60;;;;;;5069747;28;8825;-64
2022/01/04 12:59:25;;;;;;;;;70.50;57.50;20.30;40.90;;;;;;5069559;28;8782;-66
2022/01/04 13:01:57;;;;;;;;;68.25;57.00;20.30;40.60;;;;;;5069589;28;8775;-66
2022/01/04 13:04:25;;;;;;;;;65.25;53.25;20.50;41.10;;;;;;5067362;28;8775;-67
2022/01/04 13:06:52;;;;;;;;;64.75;53.25;20.10;41.80;;;;;;5060273;28;8798;-65
2022/01/04 13:09:22;;;;;;;;;73.00;63.50;20.40;40.50;;;;;;5050770;28;8773;-65
2022/01/04 13:11:55;;;;;;;;;76.50;64.75;20.50;40.10;;;;;;5050830;28;8766;-66
2022/01/04 13:14:29;;;;;;;;;74.75;65.25;20.20;41.10;;;;;;5050681;28;8797;-65
2022/01/04 13:17:04;;;;;;;;;73.50;67.00;19.70;42.10;;;;;;5050689;28;8809;-67
2022/01/04 13:19:32;;;;;;;;;77.00;72.00;19.30;43.10;;;;;;5066104;28;8815;-66